Terminal Aerodrome Forecast
Issued by NWS

Home | Current Version | Previous Version | Text Only | Print | Product List | Glossary On
Versions: 1 2 3 4 5 6 7 8 9 10 11 12 13 14 15 16 17 18 19 20 21 22 23
000
FTUS46 KSGX 241700
TAFCRQ
TAF
KCRQ 241736Z 2418/2518 VRB04KT P6SM SKC
     FM242000 27007KT P6SM FEW060
     FM250000 VRB04KT P6SM FEW001 SCT060
     FM250600 VRB03KT 1SM BR BKN001
     FM250800 VRB03KT 1/4SM FG VV001
     FM251400 VRB04KT 2SM BR OVC003=

USA.gov is the U.S. government's official web portal to all federal, state and local government web resources and services.